sensor_id;sensor_type;location;lat;lon;timestamp;P1;durP1;ratioP1;P2;durP2;ratioP2
4915;SDS011;70796;52.406;13.230;2023-12-22T00:02:20;4.27;;;1.23;;
4915;SDS011;70796;52.406;13.230;2023-12-22T00:04:46;4.93;;;1.70;;
4915;SDS011;70796;52.406;13.230;2023-12-22T00:07:13;4.30;;;1.53;;
4915;SDS011;70796;52.406;13.230;2023-12-22T00:09:39;3.50;;;1.60;;
4915;SDS011;70796;52.406;13.230;2023-12-22T00:12:06;12.40;;;1.80;;
4915;SDS011;70796;52.406;13.230;2023-12-22T00:14:32;11.50;;;2.10;;
4915;SDS011;70796;52.406;13.230;2023-12-22T00:17:02;7.67;;;1.87;;
4915;SDS011;70796;52.406;13.230;2023-12-22T00:19:29;13.87;;;2.47;;
4915;SDS011;70796;52.406;13.230;2023-12-22T00:21:55;4.90;;;2.00;;
4915;SDS011;70796;52.406;13.230;2023-12-22T00:24:22;11.50;;;2.47;;
4915;SDS011;70796;52.406;13.230;2023-12-22T00:26:49;10.53;;;2.50;;
4915;SDS011;70796;52.406;13.230;2023-12-22T00:29:15;10.30;;;2.17;;
4915;SDS011;70796;52.406;13.230;2023-12-22T00:31:46;27.77;;;2.37;;
4915;SDS011;70796;52.406;13.230;2023-12-22T00:34:14;8.50;;;2.30;;
4915;SDS011;70796;52.406;13.230;2023-12-22T00:36:43;10.07;;;2.50;;
4915;SDS011;70796;52.406;13.230;2023-12-22T00:39:11;9.43;;;1.90;;
4915;SDS011;70796;52.406;13.230;2023-12-22T00:41:37;5.57;;;1.60;;
4915;SDS011;70796;52.406;13.230;2023-12-22T00:44:04;9.63;;;1.80;;
4915;SDS011;70796;52.406;13.230;2023-12-22T00:46:31;11.67;;;2.20;;
4915;SDS011;70796;52.406;13.230;2023-12-22T00:48:58;7.20;;;1.70;;
4915;SDS011;70796;52.406;13.230;2023-12-22T00:51:25;5.33;;;1.47;;
4915;SDS011;70796;52.406;13.230;2023-12-22T00:53:51;16.73;;;1.73;;
4915;SDS011;70796;52.406;13.230;2023-12-22T00:56:18;7.97;;;2.10;;
4915;SDS011;70796;52.406;13.230;2023-12-22T00:58:45;10.20;;;2.03;;
4915;SDS011;70796;52.406;13.230;2023-12-22T01:01:23;7.00;;;2.07;;
4915;SDS011;70796;52.406;13.230;2023-12-22T01:03:50;12.20;;;2.30;;
4915;SDS011;70796;52.406;13.230;2023-12-22T01:06:17;11.40;;;2.60;;
4915;SDS011;70796;52.406;13.230;2023-12-22T01:08:47;10.53;;;2.00;;
4915;SDS011;70796;52.406;13.230;2023-12-22T01:11:16;10.60;;;2.73;;
4915;SDS011;70796;52.406;13.230;2023-12-22T01:13:43;8.83;;;2.00;;
4915;SDS011;70796;52.406;13.230;2023-12-22T01:16:10;6.67;;;2.17;;
4915;SDS011;70796;52.406;13.230;2023-12-22T01:18:36;11.83;;;2.00;;
4915;SDS011;70796;52.406;13.230;2023-12-22T01:21:03;9.50;;;2.13;;
4915;SDS011;70796;52.406;13.230;2023-12-22T01:23:30;6.30;;;2.03;;
4915;SDS011;70796;52.406;13.230;2023-12-22T01:25:56;17.07;;;2.60;;
4915;SDS011;70796;52.406;13.230;2023-12-22T01:28:23;10.50;;;1.90;;
4915;SDS011;70796;52.406;13.230;2023-12-22T01:30:50;13.33;;;2.30;;
4915;SDS011;70796;52.406;13.230;2023-12-22T01:33:17;18.47;;;2.10;;
4915;SDS011;70796;52.406;13.230;2023-12-22T01:35:45;14.80;;;2.50;;
4915;SDS011;70796;52.406;13.230;2023-12-22T01:38:12;10.33;;;1.63;;
4915;SDS011;70796;52.406;13.230;2023-12-22T01:40:39;12.93;;;2.30;;
4915;SDS011;70796;52.406;13.230;2023-12-22T01:43:06;9.57;;;2.60;;
4915;SDS011;70796;52.406;13.230;2023-12-22T01:45:32;8.33;;;2.30;;
4915;SDS011;70796;52.406;13.230;2023-12-22T01:47:59;4.80;;;2.30;;
4915;SDS011;70796;52.406;13.230;2023-12-22T01:50:25;11.33;;;1.93;;
4915;SDS011;70796;52.406;13.230;2023-12-22T01:52:53;9.87;;;2.47;;
4915;SDS011;70796;52.406;13.230;2023-12-22T01:55:21;11.17;;;2.17;;
4915;SDS011;70796;52.406;13.230;2023-12-22T01:57:48;16.87;;;2.40;;
4915;SDS011;70796;52.406;13.230;2023-12-22T02:00:15;6.53;;;2.37;;
4915;SDS011;70796;52.406;13.230;2023-12-22T02:02:42;15.00;;;2.63;;
4915;SDS011;70796;52.406;13.230;2023-12-22T02:05:10;13.90;;;2.23;;
4915;SDS011;70796;52.406;13.230;2023-12-22T02:07:41;14.70;;;2.53;;
4915;SDS011;70796;52.406;13.230;2023-12-22T02:10:08;8.97;;;2.17;;
4915;SDS011;70796;52.406;13.230;2023-12-22T02:12:38;11.67;;;2.53;;
4915;SDS011;70796;52.406;13.230;2023-12-22T02:15:05;8.13;;;3.03;;
4915;SDS011;70796;52.406;13.230;2023-12-22T02:17:37;12.47;;;2.63;;
4915;SDS011;70796;52.406;13.230;2023-12-22T02:20:06;11.63;;;2.57;;
4915;SDS011;70796;52.406;13.230;2023-12-22T02:22:33;5.07;;;1.63;;
4915;SDS011;70796;52.406;13.230;2023-12-22T02:24:59;9.50;;;2.53;;
4915;SDS011;70796;52.406;13.230;2023-12-22T02:30:08;14.17;;;2.20;;
4915;SDS011;70796;52.406;13.230;2023-12-22T02:32:36;9.60;;;1.80;;
4915;SDS011;70796;52.406;13.230;2023-12-22T02:35:05;13.90;;;2.40;;
4915;SDS011;70796;52.406;13.230;2023-12-22T02:37:34;10.93;;;2.17;;
4915;SDS011;70796;52.406;13.230;2023-12-22T02:40:01;10.00;;;2.20;;
4915;SDS011;70796;52.406;13.230;2023-12-22T02:42:28;8.30;;;1.70;;
4915;SDS011;70796;52.406;13.230;2023-12-22T02:44:57;10.07;;;2.00;;
4915;SDS011;70796;52.406;13.230;2023-12-22T02:47:24;8.63;;;2.43;;
4915;SDS011;70796;52.406;13.230;2023-12-22T02:49:51;8.00;;;1.93;;
4915;SDS011;70796;52.406;13.230;2023-12-22T02:52:17;12.33;;;2.37;;
4915;SDS011;70796;52.406;13.230;2023-12-22T02:54:45;7.40;;;1.70;;
4915;SDS011;70796;52.406;13.230;2023-12-22T03:01:09;7.23;;;1.47;;
4915;SDS011;70796;52.406;13.230;2023-12-22T03:03:35;7.33;;;2.03;;
4915;SDS011;70796;52.406;13.230;2023-12-22T03:06:01;5.60;;;1.57;;
4915;SDS011;70796;52.406;13.230;2023-12-22T03:08:28;4.83;;;1.40;;
4915;SDS011;70796;52.406;13.230;2023-12-22T03:10:54;5.33;;;1.30;;
4915;SDS011;70796;52.406;13.230;2023-12-22T03:13:24;4.00;;;1.27;;
4915;SDS011;70796;52.406;13.230;2023-12-22T03:15:50;4.13;;;1.53;;
4915;SDS011;70796;52.406;13.230;2023-12-22T03:18:17;6.77;;;1.37;;
4915;SDS011;70796;52.406;13.230;2023-12-22T03:20:43;6.20;;;1.80;;
4915;SDS011;70796;52.406;13.230;2023-12-22T03:23:10;4.40;;;2.00;;
4915;SDS011;70796;52.406;13.230;2023-12-22T03:25:36;6.50;;;1.97;;
4915;SDS011;70796;52.406;13.230;2023-12-22T03:28:03;8.70;;;1.33;;
4915;SDS011;70796;52.406;13.230;2023-12-22T03:30:30;9.40;;;1.60;;
4915;SDS011;70796;52.406;13.230;2023-12-22T03:34:54;6.27;;;1.93;;
4915;SDS011;70796;52.406;13.230;2023-12-22T03:37:20;7.63;;;1.67;;
4915;SDS011;70796;52.406;13.230;2023-12-22T03:39:47;3.80;;;1.33;;
4915;SDS011;70796;52.406;13.230;2023-12-22T03:42:13;3.90;;;1.70;;
4915;SDS011;70796;52.406;13.230;2023-12-22T03:44:40;5.70;;;1.53;;
4915;SDS011;70796;52.406;13.230;2023-12-22T03:47:07;8.30;;;1.40;;
4915;SDS011;70796;52.406;13.230;2023-12-22T03:49:34;5.70;;;1.50;;
4915;SDS011;70796;52.406;13.230;2023-12-22T03:52:00;4.00;;;1.63;;
4915;SDS011;70796;52.406;13.230;2023-12-22T03:54:26;3.57;;;1.30;;
4915;SDS011;70796;52.406;13.230;2023-12-22T03:56:54;4.93;;;1.17;;
4915;SDS011;70796;52.406;13.230;2023-12-22T03:59:20;6.30;;;1.40;;
4915;SDS011;70796;52.406;13.230;2023-12-22T04:01:50;9.40;;;1.60;;
4915;SDS011;70796;52.406;13.230;2023-12-22T04:04:17;1.80;;;1.27;;
4915;SDS011;70796;52.406;13.230;2023-12-22T04:06:44;5.00;;;1.20;;
4915;SDS011;70796;52.406;13.230;2023-12-22T04:09:10;2.40;;;1.30;;
4915;SDS011;70796;52.406;13.230;2023-12-22T04:11:37;2.83;;;1.17;;
4915;SDS011;70796;52.406;13.230;2023-12-22T04:14:05;4.07;;;1.37;;
4915;SDS011;70796;52.406;13.230;2023-12-22T04:16:32;4.37;;;1.20;;
4915;SDS011;70796;52.406;13.230;2023-12-22T04:18:59;4.27;;;1.10;;
4915;SDS011;70796;52.406;13.230;2023-12-22T04:21:26;7.07;;;1.10;;
4915;SDS011;70796;52.406;13.230;2023-12-22T04:23:52;3.57;;;1.40;;
4915;SDS011;70796;52.406;13.230;2023-12-22T04:26:23;7.43;;;1.50;;
4915;SDS011;70796;52.406;13.230;2023-12-22T04:28:53;6.30;;;1.00;;
4915;SDS011;70796;52.406;13.230;2023-12-22T04:31:24;4.77;;;1.37;;
4915;SDS011;70796;52.406;13.230;2023-12-22T04:33:53;4.80;;;1.37;;
4915;SDS011;70796;52.406;13.230;2023-12-22T04:36:20;5.43;;;1.00;;
4915;SDS011;70796;52.406;13.230;2023-12-22T04:38:48;6.37;;;1.53;;
4915;SDS011;70796;52.406;13.230;2023-12-22T04:41:14;3.33;;;1.13;;
4915;SDS011;70796;52.406;13.230;2023-12-22T04:43:40;5.50;;;1.20;;
4915;SDS011;70796;52.406;13.230;2023-12-22T04:46:07;6.37;;;1.50;;
4915;SDS011;70796;52.406;13.230;2023-12-22T04:48:34;3.17;;;0.97;;
4915;SDS011;70796;52.406;13.230;2023-12-22T04:51:00;5.13;;;1.60;;
4915;SDS011;70796;52.406;13.230;2023-12-22T04:53:26;7.60;;;1.13;;
4915;SDS011;70796;52.406;13.230;2023-12-22T04:55:54;6.10;;;1.10;;
4915;SDS011;70796;52.406;13.230;2023-12-22T04:58:21;4.30;;;1.20;;
4915;SDS011;70796;52.406;13.230;2023-12-22T05:00:48;3.80;;;1.00;;
4915;SDS011;70796;52.406;13.230;2023-12-22T05:03:15;2.17;;;0.80;;
4915;SDS011;70796;52.406;13.230;2023-12-22T05:05:41;2.50;;;0.80;;
4915;SDS011;70796;52.406;13.230;2023-12-22T05:08:08;3.33;;;1.00;;
4915;SDS011;70796;52.406;13.230;2023-12-22T05:10:36;3.03;;;1.70;;
4915;SDS011;70796;52.406;13.230;2023-12-22T05:13:02;3.13;;;0.70;;
4915;SDS011;70796;52.406;13.230;2023-12-22T05:15:30;1.73;;;1.00;;
4915;SDS011;70796;52.406;13.230;2023-12-22T05:17:56;1.50;;;0.90;;
4915;SDS011;70796;52.406;13.230;2023-12-22T05:20:23;7.00;;;0.90;;
4915;SDS011;70796;52.406;13.230;2023-12-22T05:22:52;3.13;;;1.00;;
4915;SDS011;70796;52.406;13.230;2023-12-22T05:25:19;2.90;;;0.83;;
4915;SDS011;70796;52.406;13.230;2023-12-22T05:27:45;5.07;;;0.97;;
4915;SDS011;70796;52.406;13.230;2023-12-22T05:30:12;4.30;;;1.00;;
4915;SDS011;70796;52.406;13.230;2023-12-22T05:32:39;8.13;;;1.00;;
4915;SDS011;70796;52.406;13.230;2023-12-22T05:35:06;4.57;;;1.50;;
4915;SDS011;70796;52.406;13.230;2023-12-22T05:37:33;1.80;;;0.80;;
4915;SDS011;70796;52.406;13.230;2023-12-22T05:40:00;4.10;;;1.30;;
4915;SDS011;70796;52.406;13.230;2023-12-22T05:42:27;6.03;;;1.00;;
4915;SDS011;70796;52.406;13.230;2023-12-22T05:44:53;5.97;;;1.40;;
4915;SDS011;70796;52.406;13.230;2023-12-22T05:47:19;7.40;;;1.50;;
4915;SDS011;70796;52.406;13.230;2023-12-22T05:49:47;4.53;;;1.20;;
4915;SDS011;70796;52.406;13.230;2023-12-22T05:52:13;6.30;;;1.17;;
4915;SDS011;70796;52.406;13.230;2023-12-22T05:54:40;4.63;;;1.40;;
4915;SDS011;70796;52.406;13.230;2023-12-22T05:57:06;20.03;;;1.90;;
4915;SDS011;70796;52.406;13.230;2023-12-22T05:59:36;12.67;;;3.27;;
4915;SDS011;70796;52.406;13.230;2023-12-22T06:02:03;8.37;;;2.97;;
4915;SDS011;70796;52.406;13.230;2023-12-22T06:04:29;8.03;;;2.37;;
4915;SDS011;70796;52.406;13.230;2023-12-22T06:06:55;2.40;;;1.07;;
4915;SDS011;70796;52.406;13.230;2023-12-22T06:09:25;9.40;;;1.43;;
4915;SDS011;70796;52.406;13.230;2023-12-22T06:11:52;3.03;;;1.10;;
4915;SDS011;70796;52.406;13.230;2023-12-22T06:14:19;2.50;;;0.70;;
4915;SDS011;70796;52.406;13.230;2023-12-22T06:16:47;3.70;;;0.87;;
4915;SDS011;70796;52.406;13.230;2023-12-22T06:19:13;2.00;;;0.80;;
4915;SDS011;70796;52.406;13.230;2023-12-22T06:21:39;4.20;;;1.00;;
4915;SDS011;70796;52.406;13.230;2023-12-22T06:24:07;4.10;;;1.00;;
4915;SDS011;70796;52.406;13.230;2023-12-22T06:26:34;2.83;;;0.80;;
4915;SDS011;70796;52.406;13.230;2023-12-22T06:29:01;2.80;;;0.87;;
4915;SDS011;70796;52.406;13.230;2023-12-22T06:31:30;1.40;;;1.10;;
4915;SDS011;70796;52.406;13.230;2023-12-22T06:33:57;4.40;;;0.93;;
4915;SDS011;70796;52.406;13.230;2023-12-22T06:36:29;2.80;;;0.77;;
4915;SDS011;70796;52.406;13.230;2023-12-22T06:38:56;4.73;;;1.10;;
4915;SDS011;70796;52.406;13.230;2023-12-22T06:41:24;3.47;;;1.30;;
4915;SDS011;70796;52.406;13.230;2023-12-22T06:43:55;2.93;;;0.90;;
4915;SDS011;70796;52.406;13.230;2023-12-22T06:46:23;3.80;;;0.93;;
4915;SDS011;70796;52.406;13.230;2023-12-22T06:48:52;3.40;;;1.10;;
4915;SDS011;70796;52.406;13.230;2023-12-22T06:51:23;4.87;;;0.90;;
4915;SDS011;70796;52.406;13.230;2023-12-22T06:53:52;1.53;;;0.93;;
4915;SDS011;70796;52.406;13.230;2023-12-22T06:56:22;1.80;;;1.40;;
4915;SDS011;70796;52.406;13.230;2023-12-22T06:58:50;2.90;;;1.13;;
4915;SDS011;70796;52.406;13.230;2023-12-22T07:01:18;2.77;;;1.30;;
4915;SDS011;70796;52.406;13.230;2023-12-22T07:03:46;5.60;;;1.43;;
4915;SDS011;70796;52.406;13.230;2023-12-22T07:06:17;3.37;;;1.00;;
4915;SDS011;70796;52.406;13.230;2023-12-22T07:08:44;2.03;;;1.00;;
4915;SDS011;70796;52.406;13.230;2023-12-22T07:11:31;7.30;;;1.50;;
4915;SDS011;70796;52.406;13.230;2023-12-22T07:14:03;1.77;;;1.00;;
4915;SDS011;70796;52.406;13.230;2023-12-22T07:16:30;5.90;;;0.97;;
4915;SDS011;70796;52.406;13.230;2023-12-22T07:18:56;3.17;;;1.00;;
4915;SDS011;70796;52.406;13.230;2023-12-22T07:21:22;3.80;;;1.00;;
4915;SDS011;70796;52.406;13.230;2023-12-22T07:23:50;4.40;;;1.07;;
4915;SDS011;70796;52.406;13.230;2023-12-22T07:26:16;3.07;;;0.80;;
4915;SDS011;70796;52.406;13.230;2023-12-22T07:28:45;15.67;;;1.37;;
4915;SDS011;70796;52.406;13.230;2023-12-22T07:31:13;2.03;;;0.90;;
4915;SDS011;70796;52.406;13.230;2023-12-22T07:33:40;3.80;;;1.20;;
4915;SDS011;70796;52.406;13.230;2023-12-22T07:36:08;4.03;;;1.10;;
4915;SDS011;70796;52.406;13.230;2023-12-22T07:38:36;1.90;;;0.90;;
4915;SDS011;70796;52.406;13.230;2023-12-22T07:41:02;0.50;;;0.50;;
4915;SDS011;70796;52.406;13.230;2023-12-22T07:43:29;4.97;;;0.90;;
4915;SDS011;70796;52.406;13.230;2023-12-22T07:45:56;4.50;;;1.60;;
4915;SDS011;70796;52.406;13.230;2023-12-22T07:48:24;4.47;;;1.40;;
4915;SDS011;70796;52.406;13.230;2023-12-22T07:50:51;7.87;;;1.63;;
4915;SDS011;70796;52.406;13.230;2023-12-22T07:53:18;5.10;;;1.10;;
4915;SDS011;70796;52.406;13.230;2023-12-22T07:55:45;3.07;;;1.80;;
4915;SDS011;70796;52.406;13.230;2023-12-22T07:58:13;3.57;;;1.10;;
4915;SDS011;70796;52.406;13.230;2023-12-22T08:00:39;5.80;;;1.23;;
4915;SDS011;70796;52.406;13.230;2023-12-22T08:03:05;5.97;;;0.90;;
4915;SDS011;70796;52.406;13.230;2023-12-22T08:05:31;5.70;;;1.10;;
4915;SDS011;70796;52.406;13.230;2023-12-22T08:07:59;4.97;;;1.00;;
4915;SDS011;70796;52.406;13.230;2023-12-22T08:10:26;2.70;;;1.40;;
4915;SDS011;70796;52.406;13.230;2023-12-22T08:12:54;2.53;;;0.93;;
4915;SDS011;70796;52.406;13.230;2023-12-22T08:15:20;3.33;;;1.53;;
4915;SDS011;70796;52.406;13.230;2023-12-22T08:17:59;1.43;;;0.70;;
4915;SDS011;70796;52.406;13.230;2023-12-22T08:20:25;1.60;;;0.80;;
4915;SDS011;70796;52.406;13.230;2023-12-22T08:22:58;5.73;;;1.23;;
4915;SDS011;70796;52.406;13.230;2023-12-22T08:25:30;3.63;;;0.80;;
4915;SDS011;70796;52.406;13.230;2023-12-22T08:28:00;4.20;;;0.80;;
4915;SDS011;70796;52.406;13.230;2023-12-22T08:30:27;3.27;;;1.10;;
4915;SDS011;70796;52.406;13.230;2023-12-22T08:32:54;6.10;;;1.03;;
4915;SDS011;70796;52.406;13.230;2023-12-22T08:35:21;3.53;;;1.10;;
4915;SDS011;70796;52.406;13.230;2023-12-22T08:37:47;3.77;;;1.20;;
4915;SDS011;70796;52.406;13.230;2023-12-22T08:40:14;7.03;;;1.23;;
4915;SDS011;70796;52.406;13.230;2023-12-22T08:42:41;5.90;;;1.00;;
4915;SDS011;70796;52.406;13.230;2023-12-22T08:45:07;5.30;;;1.33;;
4915;SDS011;70796;52.406;13.230;2023-12-22T08:47:34;1.83;;;0.90;;
4915;SDS011;70796;52.406;13.230;2023-12-22T08:50:00;8.03;;;1.20;;
4915;SDS011;70796;52.406;13.230;2023-12-22T08:52:30;3.37;;;1.17;;
4915;SDS011;70796;52.406;13.230;2023-12-22T08:54:57;2.40;;;1.60;;
4915;SDS011;70796;52.406;13.230;2023-12-22T08:57:24;8.03;;;1.30;;
4915;SDS011;70796;52.406;13.230;2023-12-22T08:59:51;12.90;;;1.20;;
4915;SDS011;70796;52.406;13.230;2023-12-22T09:02:17;2.90;;;1.73;;
4915;SDS011;70796;52.406;13.230;2023-12-22T09:04:44;5.73;;;1.33;;
4915;SDS011;70796;52.406;13.230;2023-12-22T09:07:11;5.73;;;1.43;;
4915;SDS011;70796;52.406;13.230;2023-12-22T09:09:38;8.17;;;1.07;;
4915;SDS011;70796;52.406;13.230;2023-12-22T09:12:05;7.90;;;1.20;;
4915;SDS011;70796;52.406;13.230;2023-12-22T09:14:34;10.50;;;1.63;;
4915;SDS011;70796;52.406;13.230;2023-12-22T09:17:02;4.90;;;1.30;;
4915;SDS011;70796;52.406;13.230;2023-12-22T09:19:33;11.43;;;1.60;;
4915;SDS011;70796;52.406;13.230;2023-12-22T09:22:01;4.10;;;1.30;;
4915;SDS011;70796;52.406;13.230;2023-12-22T09:24:28;5.03;;;1.53;;
4915;SDS011;70796;52.406;13.230;2023-12-22T09:26:56;8.50;;;1.80;;
4915;SDS011;70796;52.406;13.230;2023-12-22T09:29:30;9.10;;;1.80;;
4915;SDS011;70796;52.406;13.230;2023-12-22T09:31:59;8.13;;;1.50;;
4915;SDS011;70796;52.406;13.230;2023-12-22T09:34:28;11.13;;;1.57;;
4915;SDS011;70796;52.406;13.230;2023-12-22T09:36:55;10.83;;;1.70;;
4915;SDS011;70796;52.406;13.230;2023-12-22T09:39:23;8.77;;;2.00;;
4915;SDS011;70796;52.406;13.230;2023-12-22T09:41:50;6.10;;;1.70;;
4915;SDS011;70796;52.406;13.230;2023-12-22T09:44:20;6.83;;;1.63;;
4915;SDS011;70796;52.406;13.230;2023-12-22T09:46:48;8.43;;;1.53;;
4915;SDS011;70796;52.406;13.230;2023-12-22T09:49:20;7.67;;;1.57;;
4915;SDS011;70796;52.406;13.230;2023-12-22T09:51:49;9.23;;;1.83;;
4915;SDS011;70796;52.406;13.230;2023-12-22T09:54:20;10.70;;;1.50;;
4915;SDS011;70796;52.406;13.230;2023-12-22T09:56:52;5.33;;;1.40;;
4915;SDS011;70796;52.406;13.230;2023-12-22T09:59:20;11.43;;;2.10;;
4915;SDS011;70796;52.406;13.230;2023-12-22T10:01:48;15.23;;;2.23;;
4915;SDS011;70796;52.406;13.230;2023-12-22T10:04:18;15.73;;;2.40;;
4915;SDS011;70796;52.406;13.230;2023-12-22T10:06:47;23.53;;;2.63;;
4915;SDS011;70796;52.406;13.230;2023-12-22T10:09:16;11.10;;;1.90;;
4915;SDS011;70796;52.406;13.230;2023-12-22T10:11:43;9.43;;;2.03;;
4915;SDS011;70796;52.406;13.230;2023-12-22T10:14:11;11.73;;;2.33;;
4915;SDS011;70796;52.406;13.230;2023-12-22T10:16:42;9.30;;;2.10;;
4915;SDS011;70796;52.406;13.230;2023-12-22T10:19:10;8.77;;;2.53;;
4915;SDS011;70796;52.406;13.230;2023-12-22T10:21:38;7.97;;;2.40;;
4915;SDS011;70796;52.406;13.230;2023-12-22T10:24:05;7.23;;;1.50;;
4915;SDS011;70796;52.406;13.230;2023-12-22T10:26:33;15.43;;;2.63;;
4915;SDS011;70796;52.406;13.230;2023-12-22T10:29:00;11.67;;;1.93;;
4915;SDS011;70796;52.406;13.230;2023-12-22T10:31:38;10.80;;;2.23;;
4915;SDS011;70796;52.406;13.230;2023-12-22T10:34:05;9.23;;;2.17;;
4915;SDS011;70796;52.406;13.230;2023-12-22T10:36:34;16.37;;;2.67;;
4915;SDS011;70796;52.406;13.230;2023-12-22T10:39:02;13.30;;;2.67;;
4915;SDS011;70796;52.406;13.230;2023-12-22T10:41:29;9.50;;;1.80;;
4915;SDS011;70796;52.406;13.230;2023-12-22T10:43:57;6.93;;;1.57;;
4915;SDS011;70796;52.406;13.230;2023-12-22T10:46:25;9.07;;;1.80;;
4915;SDS011;70796;52.406;13.230;2023-12-22T10:48:53;10.30;;;2.10;;
4915;SDS011;70796;52.406;13.230;2023-12-22T10:51:20;7.70;;;1.50;;
4915;SDS011;70796;52.406;13.230;2023-12-22T10:53:48;6.83;;;1.30;;
4915;SDS011;70796;52.406;13.230;2023-12-22T10:56:17;5.03;;;1.40;;
4915;SDS011;70796;52.406;13.230;2023-12-22T10:58:44;4.40;;;1.30;;
4915;SDS011;70796;52.406;13.230;2023-12-22T11:01:13;5.07;;;1.40;;
4915;SDS011;70796;52.406;13.230;2023-12-22T11:03:42;10.30;;;2.17;;
4915;SDS011;70796;52.406;13.230;2023-12-22T11:06:10;8.93;;;1.90;;
4915;SDS011;70796;52.406;13.230;2023-12-22T11:08:39;7.90;;;2.00;;
4915;SDS011;70796;52.406;13.230;2023-12-22T11:11:10;5.57;;;1.33;;
4915;SDS011;70796;52.406;13.230;2023-12-22T11:13:41;6.67;;;2.20;;
4915;SDS011;70796;52.406;13.230;2023-12-22T11:16:09;8.10;;;2.03;;
4915;SDS011;70796;52.406;13.230;2023-12-22T11:18:35;10.67;;;3.20;;
4915;SDS011;70796;52.406;13.230;2023-12-22T11:21:03;6.70;;;1.90;;
4915;SDS011;70796;52.406;13.230;2023-12-22T11:23:32;5.50;;;1.60;;
4915;SDS011;70796;52.406;13.230;2023-12-22T11:26:00;9.20;;;1.70;;
4915;SDS011;70796;52.406;13.230;2023-12-22T11:28:28;9.67;;;1.90;;
4915;SDS011;70796;52.406;13.230;2023-12-22T11:30:54;8.37;;;1.73;;
4915;SDS011;70796;52.406;13.230;2023-12-22T11:33:24;5.27;;;1.27;;
4915;SDS011;70796;52.406;13.230;2023-12-22T11:35:52;3.10;;;1.13;;
4915;SDS011;70796;52.406;13.230;2023-12-22T11:38:21;7.07;;;1.43;;
4915;SDS011;70796;52.406;13.230;2023-12-22T11:40:48;8.77;;;1.50;;
4915;SDS011;70796;52.406;13.230;2023-12-22T11:43:18;9.67;;;1.87;;
4915;SDS011;70796;52.406;13.230;2023-12-22T11:49:14;7.53;;;1.57;;
4915;SDS011;70796;52.406;13.230;2023-12-22T11:51:44;9.00;;;2.07;;
4915;SDS011;70796;52.406;13.230;2023-12-22T11:56:59;7.80;;;1.93;;
4915;SDS011;70796;52.406;13.230;2023-12-22T11:59:26;10.57;;;2.23;;
4915;SDS011;70796;52.406;13.230;2023-12-22T12:01:56;5.93;;;1.50;;
4915;SDS011;70796;52.406;13.230;2023-12-22T12:04:26;9.10;;;1.33;;
4915;SDS011;70796;52.406;13.230;2023-12-22T12:06:53;8.23;;;1.43;;
4915;SDS011;70796;52.406;13.230;2023-12-22T12:09:19;9.47;;;1.83;;
4915;SDS011;70796;52.406;13.230;2023-12-22T12:14:32;6.67;;;1.53;;
4915;SDS011;70796;52.406;13.230;2023-12-22T12:17:03;4.67;;;2.13;;
4915;SDS011;70796;52.406;13.230;2023-12-22T12:19:33;8.60;;;1.87;;
4915;SDS011;70796;52.406;13.230;2023-12-22T12:22:00;7.23;;;1.67;;
4915;SDS011;70796;52.406;13.230;2023-12-22T12:24:27;8.13;;;1.73;;
4915;SDS011;70796;52.406;13.230;2023-12-22T12:26:54;7.93;;;1.57;;
4915;SDS011;70796;52.406;13.230;2023-12-22T12:29:22;6.53;;;1.73;;
4915;SDS011;70796;52.406;13.230;2023-12-22T12:31:50;10.13;;;2.10;;
4915;SDS011;70796;52.406;13.230;2023-12-22T12:34:17;12.30;;;1.73;;
4915;SDS011;70796;52.406;13.230;2023-12-22T12:36:47;6.83;;;1.80;;
4915;SDS011;70796;52.406;13.230;2023-12-22T12:39:15;15.93;;;2.17;;
4915;SDS011;70796;52.406;13.230;2023-12-22T12:41:43;8.07;;;1.63;;
4915;SDS011;70796;52.406;13.230;2023-12-22T12:44:14;14.10;;;2.07;;
4915;SDS011;70796;52.406;13.230;2023-12-22T12:46:41;17.30;;;1.60;;
4915;SDS011;70796;52.406;13.230;2023-12-22T12:49:09;9.90;;;2.53;;
4915;SDS011;70796;52.406;13.230;2023-12-22T12:51:39;7.37;;;1.83;;
4915;SDS011;70796;52.406;13.230;2023-12-22T12:54:08;10.73;;;1.63;;
4915;SDS011;70796;52.406;13.230;2023-12-22T12:56:39;7.77;;;2.27;;
4915;SDS011;70796;52.406;13.230;2023-12-22T12:59:10;7.03;;;1.77;;
4915;SDS011;70796;52.406;13.230;2023-12-22T13:01:44;3.80;;;1.60;;
4915;SDS011;70796;52.406;13.230;2023-12-22T13:04:13;20.57;;;2.50;;
4915;SDS011;70796;52.406;13.230;2023-12-22T13:06:49;14.30;;;2.20;;
4915;SDS011;70796;52.406;13.230;2023-12-22T13:09:18;9.23;;;2.40;;
4915;SDS011;70796;52.406;13.230;2023-12-22T13:11:46;12.70;;;2.00;;
4915;SDS011;70796;52.406;13.230;2023-12-22T13:14:35;6.60;;;2.00;;
4915;SDS011;70796;52.406;13.230;2023-12-22T13:17:01;14.53;;;1.93;;
4915;SDS011;70796;52.406;13.230;2023-12-22T13:19:29;16.60;;;2.20;;
4915;SDS011;70796;52.406;13.230;2023-12-22T13:21:57;7.63;;;2.23;;
4915;SDS011;70796;52.406;13.230;2023-12-22T13:24:24;7.43;;;2.50;;
4915;SDS011;70796;52.406;13.230;2023-12-22T13:27:02;8.90;;;2.00;;
4915;SDS011;70796;52.406;13.230;2023-12-22T13:29:30;10.50;;;2.10;;
4915;SDS011;70796;52.406;13.230;2023-12-22T13:32:08;9.30;;;1.63;;
4915;SDS011;70796;52.406;13.230;2023-12-22T13:34:35;7.60;;;2.37;;
4915;SDS011;70796;52.406;13.230;2023-12-22T13:37:03;19.33;;;2.73;;
4915;SDS011;70796;52.406;13.230;2023-12-22T13:39:29;12.33;;;2.63;;
4915;SDS011;70796;52.406;13.230;2023-12-22T13:41:56;11.97;;;2.20;;
4915;SDS011;70796;52.406;13.230;2023-12-22T13:44:23;10.63;;;2.47;;
4915;SDS011;70796;52.406;13.230;2023-12-22T13:46:50;8.87;;;1.93;;
4915;SDS011;70796;52.406;13.230;2023-12-22T13:49:18;8.37;;;1.90;;
4915;SDS011;70796;52.406;13.230;2023-12-22T13:51:45;9.17;;;1.80;;
4915;SDS011;70796;52.406;13.230;2023-12-22T13:54:13;6.13;;;1.40;;
4915;SDS011;70796;52.406;13.230;2023-12-22T13:56:40;6.40;;;1.63;;
4915;SDS011;70796;52.406;13.230;2023-12-22T13:59:09;12.13;;;1.67;;
4915;SDS011;70796;52.406;13.230;2023-12-22T14:01:37;6.80;;;1.93;;
4915;SDS011;70796;52.406;13.230;2023-12-22T14:04:04;11.00;;;1.60;;
4915;SDS011;70796;52.406;13.230;2023-12-22T14:06:31;9.03;;;1.63;;
4915;SDS011;70796;52.406;13.230;2023-12-22T14:08:58;8.73;;;1.40;;
4915;SDS011;70796;52.406;13.230;2023-12-22T14:11:26;2.90;;;1.30;;
4915;SDS011;70796;52.406;13.230;2023-12-22T14:13:57;7.60;;;1.37;;
4915;SDS011;70796;52.406;13.230;2023-12-22T14:16:25;3.33;;;1.10;;
4915;SDS011;70796;52.406;13.230;2023-12-22T14:18:54;2.73;;;0.83;;
4915;SDS011;70796;52.406;13.230;2023-12-22T14:21:22;4.00;;;1.10;;
4915;SDS011;70796;52.406;13.230;2023-12-22T14:23:49;6.83;;;1.50;;
4915;SDS011;70796;52.406;13.230;2023-12-22T14:26:15;6.10;;;1.20;;
4915;SDS011;70796;52.406;13.230;2023-12-22T14:28:46;4.53;;;1.33;;
4915;SDS011;70796;52.406;13.230;2023-12-22T14:31:18;4.70;;;1.30;;
4915;SDS011;70796;52.406;13.230;2023-12-22T14:33:47;3.97;;;0.93;;
4915;SDS011;70796;52.406;13.230;2023-12-22T14:36:14;4.70;;;1.27;;
4915;SDS011;70796;52.406;13.230;2023-12-22T14:38:40;5.67;;;1.10;;
4915;SDS011;70796;52.406;13.230;2023-12-22T14:41:07;6.53;;;1.60;;
4915;SDS011;70796;52.406;13.230;2023-12-22T14:43:37;3.47;;;1.17;;
4915;SDS011;70796;52.406;13.230;2023-12-22T14:46:08;4.53;;;1.30;;
4915;SDS011;70796;52.406;13.230;2023-12-22T14:48:36;5.97;;;1.30;;
4915;SDS011;70796;52.406;13.230;2023-12-22T14:51:04;5.40;;;1.33;;
4915;SDS011;70796;52.406;13.230;2023-12-22T14:53:33;7.93;;;1.50;;
4915;SDS011;70796;52.406;13.230;2023-12-22T14:56:01;10.10;;;1.10;;
4915;SDS011;70796;52.406;13.230;2023-12-22T14:58:28;5.77;;;1.67;;
4915;SDS011;70796;52.406;13.230;2023-12-22T15:00:57;6.97;;;1.20;;
4915;SDS011;70796;52.406;13.230;2023-12-22T15:03:24;9.20;;;1.30;;
4915;SDS011;70796;52.406;13.230;2023-12-22T15:05:51;7.90;;;1.37;;
4915;SDS011;70796;52.406;13.230;2023-12-22T15:08:18;7.60;;;1.67;;